Nabulus, West Bank
Current Conditions -  °F | °C
As of 1:20 PM on Thursday 29 Jan 2015 (Local Time) from LLBG Reporting Station
Clear Clear  
Wind Chill: 64°   Ceiling: Unl
Heat Index: 64°   Visibility: 6mi
Dew Point: 43°   Wind: 10mph
Humidity: 45%   Direction: 290°WNW
Pressure: 29.94"   Gusts: NA
Location:  32.23°N, 35.27°E
Report Text: LLBG 291020Z 29009KT CAVOK 18/06 Q1014 NOSIG
Loading
Personal Weather Stations






























Interactive Weather Map New forecast layout! Learn more

10-Day Weather Forecast

Advertisements
Track Severe Weather on mobile